createdAt,value
2023-01-10T00:00:14.659Z,21.70
2023-01-10T00:03:21.401Z,24.27
2023-01-10T00:05:55.478Z,29.33
2023-01-10T00:08:43.443Z,23.95
2023-01-10T00:11:36.452Z,25.17
2023-01-10T00:14:23.404Z,26.42
2023-01-10T00:17:04.437Z,25.00
2023-01-10T00:19:51.403Z,29.75
2023-01-10T00:22:32.409Z,26.70
2023-01-10T00:25:20.408Z,24.35
2023-01-10T00:28:19.419Z,11.88
2023-01-10T00:31:13.443Z,19.58
2023-01-10T00:34:00.443Z,22.00
2023-01-10T00:36:34.508Z,7.68
2023-01-10T00:39:22.439Z,15.15
2023-01-10T00:42:22.391Z,17.15
2023-01-10T00:45:10.400Z,21.40
2023-01-10T00:47:51.473Z,9.02
2023-01-10T00:50:31.412Z,14.07
2023-01-10T00:53:12.582Z,9.98
2023-01-10T00:55:52.412Z,11.90
2023-01-10T00:58:34.006Z,15.43
2023-01-10T01:01:13.529Z,18.15
2023-01-10T01:04:01.454Z,17.95
2023-01-10T01:06:42.405Z,29.55
2023-01-10T01:09:23.516Z,28.55
2023-01-10T01:12:04.412Z,20.70
2023-01-10T01:14:52.426Z,18.23
2023-01-10T01:17:26.342Z,27.08
2023-01-10T01:20:14.427Z,22.92
2023-01-10T01:22:55.408Z,16.15
2023-01-10T01:25:43.396Z,16.13
2023-01-10T01:28:17.389Z,12.07
2023-01-10T01:31:05.477Z,21.77
2023-01-10T01:33:39.356Z,19.48
2023-01-10T01:36:27.417Z,68.60
2023-01-10T01:39:01.420Z,58.03
2023-01-10T01:42:04.419Z,44.38
2023-01-10T01:44:39.613Z,17.58
2023-01-10T01:47:37.444Z,32.67
2023-01-10T01:50:26.590Z,17.27
2023-01-10T01:53:16.429Z,18.23
2023-01-10T01:55:57.446Z,18.53
2023-01-10T01:58:46.516Z,35.10
2023-01-10T02:01:27.533Z,55.92
2023-01-10T02:04:15.577Z,32.92
2023-01-10T02:06:57.451Z,22.08
2023-01-10T02:09:51.447Z,44.38
2023-01-10T02:12:32.399Z,59.35
2023-01-10T02:15:20.403Z,10.23
2023-01-10T02:17:54.518Z,12.32
2023-01-10T02:20:43.423Z,11.18
2023-01-10T02:23:45.447Z,13.00
2023-01-10T02:26:45.426Z,18.08
2023-01-10T02:29:29.412Z,16.42
2023-01-10T02:32:35.575Z,17.35
2023-01-10T02:35:24.500Z,21.20
2023-01-10T02:38:35.450Z,18.23
2023-01-10T02:41:24.587Z,13.68
2023-01-10T02:44:18.357Z,14.07
2023-01-10T02:46:58.471Z,16.63
2023-01-10T02:49:48.494Z,12.88
2023-01-10T02:52:35.414Z,22.67
2023-01-10T02:55:16.513Z,15.32
2023-01-10T02:58:05.456Z,19.88
2023-01-10T03:01:02.525Z,16.40
2023-01-10T03:04:02.488Z,17.40
2023-01-10T03:06:51.541Z,10.55
2023-01-10T03:09:34.402Z,17.08
2023-01-10T03:12:26.499Z,16.85
2023-01-10T03:15:09.491Z,17.92
2023-01-10T03:17:59.535Z,14.63
2023-01-10T03:20:34.619Z,7.33
2023-01-10T03:23:22.412Z,18.48
2023-01-10T03:25:57.547Z,15.90
2023-01-10T03:28:59.416Z,7.97
2023-01-10T03:31:46.445Z,14.40
2023-01-10T03:34:27.979Z,18.33
2023-01-10T03:37:27.439Z,19.40
2023-01-10T03:40:06.683Z,18.17
2023-01-10T03:43:18.437Z,18.60
2023-01-10T03:45:59.181Z,16.90
2023-01-10T03:48:50.411Z,19.35
2023-01-10T03:51:24.763Z,18.08
2023-01-10T03:54:14.415Z,12.05
2023-01-10T03:56:50.875Z,21.23
2023-01-10T03:59:41.426Z,23.25
2023-01-10T04:02:21.411Z,20.05
2023-01-10T04:05:09.448Z,21.67
2023-01-10T04:07:43.419Z,15.05
2023-01-10T04:10:33.406Z,20.23
2023-01-10T04:13:07.481Z,15.93
2023-01-10T04:15:55.459Z,21.05
2023-01-10T04:18:35.441Z,20.20
2023-01-10T04:21:23.416Z,23.05
2023-01-10T04:23:57.401Z,21.77
2023-01-10T04:26:45.429Z,16.02
2023-01-10T04:29:19.371Z,19.58
2023-01-10T04:32:07.470Z,10.82
2023-01-10T04:34:47.450Z,24.27
2023-01-10T04:37:28.587Z,20.70
2023-01-10T04:40:09.443Z,18.52
2023-01-10T04:42:57.408Z,16.30
2023-01-10T04:45:37.529Z,14.80
2023-01-10T04:48:18.569Z,20.73
2023-01-10T04:50:59.434Z,16.77
2023-01-10T04:53:47.423Z,22.95
2023-01-10T04:56:22.395Z,6.30
2023-01-10T04:59:12.427Z,16.75
2023-01-10T05:01:52.563Z,21.95
2023-01-10T05:04:33.526Z,14.18
2023-01-10T05:07:13.425Z,25.98
2023-01-10T05:09:54.536Z,24.13
2023-01-10T05:12:34.478Z,15.05
2023-01-10T05:15:15.521Z,9.05
2023-01-10T05:17:57.464Z,7.03
2023-01-10T05:20:38.488Z,8.70
2023-01-10T05:23:19.458Z,14.80
2023-01-10T05:26:07.439Z,13.82
2023-01-10T05:28:41.752Z,10.65
2023-01-10T05:31:30.496Z,13.32
2023-01-10T05:34:10.437Z,10.90
2023-01-10T05:36:51.528Z,8.63
2023-01-10T05:39:31.469Z,9.00
2023-01-10T05:42:12.541Z,11.63
2023-01-10T05:44:52.430Z,16.25
2023-01-10T05:47:40.431Z,11.77
2023-01-10T05:50:14.406Z,12.55
2023-01-10T05:53:02.453Z,13.57
2023-01-10T05:55:42.465Z,14.18
2023-01-10T05:58:23.539Z,15.68
2023-01-10T06:01:04.497Z,10.48
2023-01-10T06:03:52.423Z,17.40
2023-01-10T06:06:26.372Z,24.60
2023-01-10T06:09:14.472Z,11.60
2023-01-10T06:11:54.458Z,13.15
2023-01-10T06:14:35.487Z,12.93
2023-01-10T06:17:16.441Z,14.35
2023-01-10T06:19:57.509Z,11.20
2023-01-10T06:22:38.443Z,13.07
2023-01-10T06:25:21.559Z,12.85
2023-01-10T06:28:02.442Z,10.40
2023-01-10T06:30:50.478Z,13.90
2023-01-10T06:33:31.424Z,14.95
2023-01-10T06:36:12.570Z,10.85
2023-01-10T06:38:53.452Z,11.52
2023-01-10T06:41:34.641Z,13.88
2023-01-10T06:44:15.457Z,9.90
2023-01-10T06:47:03.466Z,19.77
2023-01-10T06:49:37.448Z,16.63
2023-01-10T06:52:25.422Z,10.98
2023-01-10T06:55:05.458Z,6.57
2023-01-10T06:57:53.449Z,19.77
2023-01-10T07:00:34.453Z,27.73
2023-01-10T07:03:16.510Z,29.83
2023-01-10T07:05:56.414Z,23.95
2023-01-10T07:08:37.534Z,30.48
2023-01-10T07:11:18.438Z,23.65
2023-01-10T07:14:06.480Z,33.65
2023-01-10T07:16:46.472Z,16.38
2023-01-10T07:19:27.561Z,11.50
2023-01-10T07:22:07.510Z,14.68
2023-01-10T07:24:48.728Z,17.65
2023-01-10T07:27:29.431Z,22.42
2023-01-10T07:30:25.481Z,18.95
2023-01-10T07:33:19.469Z,14.27
2023-01-10T07:36:07.450Z,15.02
2023-01-10T07:38:41.509Z,12.88
2023-01-10T07:41:29.445Z,8.00
2023-01-10T07:44:03.571Z,11.40
2023-01-10T07:46:50.486Z,12.80
2023-01-10T07:49:24.547Z,18.83
2023-01-10T07:52:14.410Z,10.40
2023-01-10T07:54:48.517Z,13.90
2023-01-10T07:57:36.429Z,16.33
2023-01-10T08:00:18.906Z,14.02
2023-01-10T08:03:13.592Z,21.52
2023-01-10T08:06:21.441Z,16.17
2023-01-10T08:09:02.435Z,9.30
2023-01-10T08:11:56.409Z,11.55
2023-01-10T08:14:43.506Z,16.58
2023-01-10T08:17:24.541Z,10.20
2023-01-10T08:20:04.445Z,14.02
2023-01-10T08:22:52.479Z,12.13
2023-01-10T08:25:26.838Z,14.93
2023-01-10T08:28:14.448Z,20.88
2023-01-10T08:30:55.526Z,16.02
2023-01-10T08:33:43.438Z,16.27
2023-01-10T08:36:22.157Z,18.25
2023-01-10T08:39:09.451Z,14.52
2023-01-10T08:41:43.404Z,8.38
2023-01-10T08:44:33.461Z,16.02
2023-01-10T08:47:07.396Z,12.57
2023-01-10T08:49:56.432Z,10.55
2023-01-10T08:52:38.441Z,19.15
2023-01-10T08:55:19.584Z,16.60
2023-01-10T08:58:00.453Z,21.65
2023-01-10T09:00:48.429Z,28.35
2023-01-10T09:03:28.415Z,29.23
2023-01-10T09:06:09.568Z,23.52
2023-01-10T09:08:49.428Z,23.27
2023-01-10T09:11:37.447Z,29.75
2023-01-10T09:14:11.389Z,25.77
2023-01-10T09:16:59.448Z,20.67
2023-01-10T09:19:33.423Z,25.75
2023-01-10T09:22:21.444Z,17.45
2023-01-10T09:25:02.452Z,19.00
2023-01-10T09:27:43.601Z,20.85
2023-01-10T09:30:24.492Z,20.08
2023-01-10T09:33:05.542Z,16.20
2023-01-10T09:35:47.477Z,14.45
2023-01-10T09:38:28.533Z,16.55
2023-01-10T09:41:15.466Z,16.17
2023-01-10T09:44:01.235Z,22.48
2023-01-10T09:46:54.489Z,17.90
2023-01-10T09:50:02.484Z,22.58
2023-01-10T09:52:42.952Z,17.13
2023-01-10T09:55:36.433Z,18.08
2023-01-10T09:58:16.452Z,23.10
2023-01-10T10:01:11.474Z,27.17
2023-01-10T10:03:45.519Z,26.60
2023-01-10T10:06:33.612Z,25.38
2023-01-10T10:09:16.456Z,25.30
2023-01-10T10:12:29.482Z,18.55
2023-01-10T10:15:13.488Z,24.60
2023-01-10T10:18:16.490Z,19.70
2023-01-10T10:21:27.468Z,44.58
2023-01-10T10:24:20.561Z,44.67
2023-01-10T10:27:06.468Z,46.45
2023-01-10T10:29:56.543Z,24.33
2023-01-10T10:32:40.469Z,11.95
2023-01-10T10:35:24.565Z,15.98
2023-01-10T10:38:09.447Z,20.70
2023-01-10T10:40:58.469Z,22.75
2023-01-10T10:43:35.759Z,21.33
2023-01-10T10:46:27.471Z,18.60
2023-01-10T10:49:05.191Z,24.83
2023-01-10T10:51:59.464Z,25.35
2023-01-10T10:54:35.644Z,21.13
2023-01-10T10:57:25.464Z,17.23
2023-01-10T11:00:21.455Z,27.58
2023-01-10T11:03:12.484Z,18.70
2023-01-10T11:05:47.561Z,18.02
2023-01-10T11:08:36.492Z,15.70
2023-01-10T11:11:20.452Z,9.85
2023-01-10T11:14:16.482Z,13.43
2023-01-10T11:17:23.451Z,13.80
2023-01-10T11:20:24.470Z,33.25
2023-01-10T11:23:18.470Z,18.40
2023-01-10T11:26:36.484Z,15.75
2023-01-10T11:29:40.469Z,12.98
2023-01-10T11:32:36.494Z,17.60
2023-01-10T11:35:17.708Z,15.05
2023-01-10T11:38:07.455Z,22.50
2023-01-10T11:40:42.544Z,14.13
2023-01-10T11:43:32.491Z,18.13
2023-01-10T11:46:14.529Z,16.60
2023-01-10T11:49:13.456Z,13.05
2023-01-10T11:51:53.528Z,14.52
2023-01-10T11:54:41.477Z,13.48
2023-01-10T11:57:29.526Z,20.08
2023-01-10T12:00:17.468Z,13.30
2023-01-10T12:02:52.586Z,12.88
2023-01-10T12:05:41.455Z,16.13
2023-01-10T12:08:31.629Z,14.82
2023-01-10T12:13:45.867Z,14.98
2023-01-10T12:16:36.561Z,15.70
2023-01-10T12:19:12.905Z,17.13
2023-01-10T12:22:00.502Z,15.50
2023-01-10T12:24:36.009Z,14.05
2023-01-10T12:27:27.457Z,19.25
2023-01-10T12:30:36.466Z,18.42
2023-01-10T12:33:34.498Z,16.63
2023-01-10T12:36:11.475Z,15.70
2023-01-10T12:39:13.481Z,17.92
2023-01-10T12:42:06.191Z,15.43
2023-01-10T12:44:54.482Z,23.33
2023-01-10T12:47:37.563Z,15.95
2023-01-10T12:50:25.464Z,17.80
2023-01-10T12:53:05.568Z,22.70
2023-01-10T12:55:51.494Z,24.25
2023-01-10T12:58:39.649Z,21.25
2023-01-10T13:01:34.578Z,21.35
2023-01-10T13:04:22.532Z,19.00
2023-01-10T13:07:03.481Z,19.15
2023-01-10T13:10:11.470Z,20.25
2023-01-10T13:12:47.576Z,19.98
2023-01-10T13:15:44.597Z,24.35
2023-01-10T13:18:38.590Z,26.42
2023-01-10T13:21:26.475Z,21.13
2023-01-10T13:24:28.488Z,20.77
2023-01-10T13:27:31.625Z,24.02
2023-01-10T13:30:47.492Z,20.77
2023-01-10T13:33:38.562Z,23.45
2023-01-10T13:36:32.520Z,21.67
2023-01-10T13:39:45.473Z,20.65
2023-01-10T13:42:54.499Z,23.98
2023-01-10T13:45:38.789Z,21.23
2023-01-10T13:48:33.483Z,26.00
2023-01-10T13:51:21.519Z,23.08
2023-01-10T13:54:23.537Z,22.30
2023-01-10T13:56:57.567Z,79.03
2023-01-10T14:00:06.583Z,97.75
2023-01-10T14:02:47.513Z,40.67
2023-01-10T14:05:41.513Z,48.22
2023-01-10T14:08:29.499Z,32.38
2023-01-10T14:11:18.559Z,27.10
2023-01-10T14:14:00.461Z,29.77
2023-01-10T14:16:53.501Z,27.33
2023-01-10T14:19:48.512Z,20.98
2023-01-10T14:22:38.476Z,23.67
2023-01-10T14:25:31.527Z,30.53
2023-01-10T14:28:29.512Z,27.30
2023-01-10T14:31:03.731Z,31.52
2023-01-10T14:33:51.525Z,35.60
2023-01-10T14:36:54.668Z,45.83
2023-01-10T14:39:42.480Z,62.92
2023-01-10T14:42:21.573Z,71.50
2023-01-10T14:45:12.602Z,85.57
2023-01-10T14:47:48.781Z,82.25
2023-01-10T14:50:39.510Z,72.47
2023-01-10T14:56:01.543Z,31.10
2023-01-10T14:58:42.537Z,28.50
2023-01-10T15:01:39.556Z,33.85
2023-01-10T15:04:35.661Z,31.95
2023-01-10T15:07:23.473Z,33.75
2023-01-10T15:10:04.500Z,35.17
2023-01-10T15:12:58.489Z,55.33
2023-01-10T15:15:46.609Z,40.20
2023-01-10T15:18:51.494Z,36.03
2023-01-10T15:21:39.526Z,34.60
2023-01-10T15:24:32.839Z,53.88
2023-01-10T15:27:21.484Z,48.13
2023-01-10T15:30:02.666Z,47.80
2023-01-10T15:32:57.476Z,45.47
2023-01-10T15:35:45.634Z,38.30
2023-01-10T15:38:28.497Z,51.40
2023-01-10T15:41:22.532Z,49.58
2023-01-10T15:44:29.547Z,43.15
2023-01-10T15:47:04.660Z,50.25
2023-01-10T15:50:01.001Z,59.13
2023-01-10T15:52:36.185Z,77.28
2023-01-10T15:55:41.908Z,59.03
2023-01-10T15:58:21.009Z,45.00
2023-01-10T16:01:08.636Z,47.15
2023-01-10T16:03:43.669Z,41.58
2023-01-10T16:06:39.505Z,39.33
2023-01-10T16:09:27.861Z,36.95
2023-01-10T16:12:26.527Z,28.55
2023-01-10T16:15:07.612Z,26.35
2023-01-10T16:17:47.497Z,39.08
2023-01-10T16:20:48.633Z,40.17
2023-01-10T16:23:40.500Z,79.63
2023-01-10T16:26:21.634Z,34.45
2023-01-10T16:29:01.529Z,49.15
2023-01-10T16:31:49.562Z,45.30
2023-01-10T16:34:30.541Z,44.60
2023-01-10T16:37:11.606Z,40.63
2023-01-10T16:39:51.543Z,37.67
2023-01-10T16:42:51.199Z,33.15
2023-01-10T16:45:31.600Z,36.13
2023-01-10T16:48:13.683Z,44.55
2023-01-10T16:50:54.511Z,41.05
2023-01-10T16:53:35.621Z,39.67
2023-01-10T16:56:19.499Z,55.47
2023-01-10T16:59:02.013Z,74.63
2023-01-10T17:01:44.703Z,85.35
2023-01-10T17:04:28.069Z,83.95
2023-01-10T17:07:08.512Z,85.93
2023-01-10T17:09:49.611Z,55.70
2023-01-10T17:12:30.520Z,46.08
2023-01-10T17:15:14.116Z,35.42
2023-01-10T17:17:53.525Z,44.28
2023-01-10T17:20:34.687Z,47.25
2023-01-10T17:23:16.584Z,48.20
2023-01-10T17:26:11.550Z,46.40
2023-01-10T17:28:52.539Z,49.50
2023-01-10T17:31:40.541Z,44.58
2023-01-10T17:34:14.452Z,41.58
2023-01-10T17:37:02.532Z,44.85
2023-01-10T17:39:37.840Z,47.55
2023-01-10T17:42:25.533Z,52.28
2023-01-10T17:45:06.572Z,51.85
2023-01-10T17:47:54.548Z,42.10
2023-01-10T17:50:28.507Z,46.47
2023-01-10T17:53:16.682Z,48.95
2023-01-10T17:55:57.603Z,46.80
2023-01-10T17:58:38.729Z,47.95
2023-01-10T18:01:27.655Z,59.38
2023-01-10T18:04:15.518Z,53.28
2023-01-10T18:06:52.067Z,45.78
2023-01-10T18:09:39.538Z,52.45
2023-01-10T18:12:13.494Z,51.17
2023-01-10T18:15:01.565Z,48.42
2023-01-10T18:17:35.575Z,50.20
2023-01-10T18:20:23.674Z,53.35
2023-01-10T18:23:16.331Z,48.97
2023-01-10T18:26:06.526Z,49.22
2023-01-10T18:28:42.710Z,50.33
2023-01-10T18:31:31.531Z,63.65
2023-01-10T18:34:11.701Z,80.68
2023-01-10T18:36:52.622Z,95.32
2023-01-10T18:39:32.519Z,129.95
2023-01-10T18:42:13.792Z,128.63
2023-01-10T18:44:54.689Z,81.65
2023-01-10T18:47:35.693Z,72.25
2023-01-10T18:50:16.604Z,55.08
2023-01-10T18:53:04.539Z,41.55
2023-01-10T18:55:44.518Z,46.25
2023-01-10T18:58:25.680Z,45.08
2023-01-10T19:01:11.587Z,44.60
2023-01-10T19:03:59.703Z,50.67
2023-01-10T19:06:33.746Z,48.65
2023-01-10T19:09:21.653Z,48.55
2023-01-10T19:12:01.671Z,56.53
2023-01-10T19:14:49.533Z,53.40
2023-01-10T19:17:24.999Z,49.70
2023-01-10T19:20:12.540Z,63.17
2023-01-10T19:22:47.631Z,61.42
2023-01-10T19:25:35.531Z,55.13
2023-01-10T19:28:15.514Z,52.40
2023-01-10T19:31:04.526Z,65.10
2023-01-10T19:33:45.718Z,43.88
2023-01-10T19:36:27.665Z,49.60
2023-01-10T19:39:08.767Z,50.53
2023-01-10T19:41:49.622Z,51.67
2023-01-10T19:44:29.715Z,47.33
2023-01-10T19:47:11.643Z,43.20
2023-01-10T19:49:51.747Z,51.38
2023-01-10T19:52:39.545Z,40.70
2023-01-10T19:55:20.721Z,47.22
2023-01-10T19:58:08.532Z,43.72
2023-01-10T20:00:42.475Z,40.55
2023-01-10T20:03:30.749Z,54.40
2023-01-10T20:06:20.784Z,52.47
2023-01-10T20:08:55.623Z,62.65
2023-01-10T20:11:48.716Z,60.17
2023-01-10T20:14:34.558Z,60.22
2023-01-10T20:17:28.601Z,55.25
2023-01-10T20:20:16.513Z,52.88
2023-01-10T20:22:50.684Z,51.22
2023-01-10T20:25:37.761Z,56.63
2023-01-10T20:28:11.646Z,68.43
2023-01-10T20:30:59.549Z,67.07
2023-01-10T20:33:40.527Z,50.20
2023-01-10T20:36:36.542Z,48.10
2023-01-10T20:39:24.640Z,34.92
2023-01-10T20:42:06.585Z,37.75
2023-01-10T20:45:00.600Z,35.22
2023-01-10T20:47:48.717Z,35.80
2023-01-10T20:50:29.637Z,45.67
2023-01-10T20:53:24.518Z,43.58
2023-01-10T20:56:13.688Z,47.63
2023-01-10T20:58:48.788Z,50.80
2023-01-10T21:01:36.660Z,45.55
2023-01-10T21:04:19.536Z,46.78
2023-01-10T21:07:00.594Z,32.88
2023-01-10T21:09:48.591Z,26.10
2023-01-10T21:12:26.786Z,38.47
2023-01-10T21:15:15.608Z,34.53
2023-01-10T21:17:50.075Z,38.65
2023-01-10T21:20:37.598Z,33.53
2023-01-10T21:23:11.724Z,31.25
2023-01-10T21:25:59.582Z,27.48
2023-01-10T21:28:34.884Z,29.13
2023-01-10T21:31:26.607Z,32.33
2023-01-10T21:34:00.556Z,29.52
2023-01-10T21:36:49.541Z,33.92
2023-01-10T21:39:30.554Z,18.88
2023-01-10T21:42:30.415Z,22.75
2023-01-10T21:45:14.532Z,30.08
2023-01-10T21:47:56.346Z,26.30
2023-01-10T21:50:39.584Z,23.17
2023-01-10T21:53:20.685Z,16.48
2023-01-10T21:56:04.596Z,17.08
2023-01-10T21:58:53.557Z,16.52
2023-01-10T22:01:27.672Z,23.92
2023-01-10T22:04:17.215Z,22.17
2023-01-10T22:07:11.540Z,28.95
2023-01-10T22:09:59.571Z,24.73
2023-01-10T22:12:33.770Z,10.52
2023-01-10T22:15:21.611Z,18.10
2023-01-10T22:17:55.679Z,20.02
2023-01-10T22:20:43.583Z,5.40
2023-01-10T22:23:17.624Z,19.00
2023-01-10T22:26:07.557Z,27.80
2023-01-10T22:28:41.667Z,26.13
2023-01-10T22:31:28.600Z,17.40
2023-01-10T22:34:09.583Z,26.55
2023-01-10T22:37:03.552Z,21.85
2023-01-10T22:39:51.609Z,17.45
2023-01-10T22:42:27.103Z,11.65
2023-01-10T22:45:14.543Z,13.40
2023-01-10T22:47:55.542Z,17.20
2023-01-10T22:50:42.544Z,18.85
2023-01-10T22:53:16.649Z,13.45
2023-01-10T22:56:06.538Z,18.30
2023-01-10T22:58:42.801Z,20.42
2023-01-10T23:01:31.582Z,19.03
2023-01-10T23:04:05.662Z,18.65
2023-01-10T23:06:53.583Z,25.35
2023-01-10T23:09:27.640Z,25.98
2023-01-10T23:12:14.587Z,27.13
2023-01-10T23:14:55.606Z,18.70
2023-01-10T23:17:42.596Z,24.13
2023-01-10T23:20:24.612Z,27.02
2023-01-10T23:23:18.536Z,25.80
2023-01-10T23:26:10.572Z,25.92
2023-01-10T23:28:48.661Z,26.30
2023-01-10T23:31:38.587Z,23.27
2023-01-10T23:34:12.673Z,19.75
2023-01-10T23:37:00.615Z,32.83
2023-01-10T23:39:34.619Z,23.65
2023-01-10T23:42:21.536Z,22.42
2023-01-10T23:45:02.613Z,30.63
2023-01-10T23:47:56.570Z,28.45
2023-01-10T23:50:44.584Z,26.70
2023-01-10T23:53:25.578Z,30.13
2023-01-10T23:56:13.604Z,36.92
2023-01-10T23:58:47.669Z,42.53
